createdAt,value
2018-07-17T00:01:15.957Z,95651.88
2018-07-17T00:03:44.576Z,95652.44
2018-07-17T00:06:14.644Z,95644.02
2018-07-17T00:08:43.343Z,95649.70
2018-07-17T00:11:13.496Z,95644.27
2018-07-17T00:13:42.604Z,95648.03
2018-07-17T00:16:11.168Z,95642.14
2018-07-17T00:18:39.833Z,95651.92
2018-07-17T00:21:10.903Z,95647.97
2018-07-17T00:23:39.484Z,95647.67
2018-07-17T00:26:08.112Z,95654.56
2018-07-17T00:28:36.666Z,95659.62
2018-07-17T00:31:05.763Z,95654.23
2018-07-17T00:33:34.389Z,95647.86
2018-07-17T00:36:02.964Z,95645.12
2018-07-17T00:38:31.564Z,95641.66
2018-07-17T00:41:00.125Z,95642.09
2018-07-17T00:43:28.716Z,95649.51
2018-07-17T00:45:57.650Z,95647.02
2018-07-17T00:48:26.248Z,95646.31
2018-07-17T00:50:54.844Z,95646.03
2018-07-17T00:53:23.415Z,95643.94
2018-07-17T00:55:51.953Z,95645.62
2018-07-17T00:58:20.524Z,95639.86
2018-07-17T01:00:48.159Z,95638.20
2018-07-17T01:03:24.662Z,95639.60
2018-07-17T01:05:58.495Z,95643.88
2018-07-17T01:08:32.281Z,95649.99
2018-07-17T01:11:06.148Z,95659.77
2018-07-17T01:14:06.894Z,95656.57
2018-07-17T01:16:35.664Z,95665.41
2018-07-17T01:19:04.241Z,95651.76
2018-07-17T01:21:32.884Z,95652.66
2018-07-17T01:24:01.520Z,95657.53
2018-07-17T01:26:30.152Z,95655.86
2018-07-17T01:28:58.792Z,95657.11
2018-07-17T01:31:27.453Z,95662.31
2018-07-17T01:33:56.017Z,95662.72
2018-07-17T01:36:24.570Z,95662.50
2018-07-17T01:38:53.160Z,95658.27
2018-07-17T01:41:21.761Z,95659.38
2018-07-17T01:43:50.413Z,95659.27
2018-07-17T01:46:19.153Z,95671.36
2018-07-17T01:48:47.802Z,95671.20
2018-07-17T01:51:16.415Z,95667.80
2018-07-17T01:53:45.068Z,95671.69
2018-07-17T01:56:13.629Z,95675.73
2018-07-17T01:58:42.323Z,95680.74
2018-07-17T02:01:10.971Z,95686.94
2018-07-17T02:03:39.677Z,95685.45
2018-07-17T02:06:09.539Z,95673.03
2018-07-17T02:08:38.479Z,95676.55
2018-07-17T02:11:07.152Z,95674.27
2018-07-17T02:13:35.703Z,95675.75
2018-07-17T02:16:04.319Z,95675.05
2018-07-17T02:18:32.911Z,95676.28
2018-07-17T02:21:01.836Z,95679.09
2018-07-17T02:23:30.401Z,95678.28
2018-07-17T02:25:59.060Z,95680.84
2018-07-17T02:28:27.610Z,95681.23
2018-07-17T02:30:56.218Z,95678.63
2018-07-17T02:33:24.794Z,95680.96
2018-07-17T02:35:53.376Z,95679.66
2018-07-17T02:38:21.949Z,95672.57
2018-07-17T02:40:50.684Z,95676.50
2018-07-17T02:43:19.213Z,95676.02
2018-07-17T02:45:47.791Z,95682.95
2018-07-17T02:48:16.413Z,95687.45
2018-07-17T02:50:45.014Z,95686.27
2018-07-17T02:53:13.799Z,95687.63
2018-07-17T02:55:42.786Z,95680.06
2018-07-17T02:58:11.355Z,95680.39
2018-07-17T03:00:40.432Z,95690.88
2018-07-17T03:03:09.198Z,95688.81
2018-07-17T03:05:37.766Z,95693.04
2018-07-17T03:08:06.361Z,95694.22
2018-07-17T03:10:34.931Z,95691.93
2018-07-17T03:13:03.506Z,95690.45
2018-07-17T03:15:32.300Z,95664.77
2018-07-17T03:18:00.872Z,95685.44
2018-07-17T03:20:29.719Z,95687.77
2018-07-17T03:22:58.360Z,95683.99
2018-07-17T03:25:27.113Z,95683.20
2018-07-17T03:27:55.659Z,95686.70
2018-07-17T03:30:24.552Z,95683.02
2018-07-17T03:32:53.159Z,95681.72
2018-07-17T03:35:21.713Z,95677.13
2018-07-17T03:37:50.276Z,95678.55
2018-07-17T03:40:18.881Z,95680.52
2018-07-17T03:42:47.628Z,95681.36
2018-07-17T03:45:16.208Z,95682.81
2018-07-17T03:47:44.753Z,95677.05
2018-07-17T03:50:13.337Z,95667.84
2018-07-17T03:52:41.940Z,95662.14
2018-07-17T03:55:14.143Z,95656.89
2018-07-17T03:57:42.956Z,95661.93
2018-07-17T04:00:11.556Z,95669.81
2018-07-17T04:02:40.190Z,95670.66
2018-07-17T04:05:08.734Z,95674.72
2018-07-17T04:07:38.986Z,95676.56
2018-07-17T04:10:07.606Z,95671.41
2018-07-17T04:12:36.325Z,95672.70
2018-07-17T04:15:04.968Z,95672.61
2018-07-17T04:17:33.517Z,95677.11
2018-07-17T04:20:02.075Z,95678.23
2018-07-17T04:22:30.648Z,95676.11
2018-07-17T04:24:59.194Z,95681.16
2018-07-17T04:27:28.192Z,95669.08
2018-07-17T04:29:56.799Z,95673.72
2018-07-17T04:32:25.384Z,95666.64
2018-07-17T04:34:53.983Z,95663.02
2018-07-17T04:37:22.969Z,95661.86
2018-07-17T04:39:51.579Z,95664.54
2018-07-17T04:42:20.738Z,95664.98
2018-07-17T04:44:49.317Z,95661.05
2018-07-17T04:47:17.933Z,95668.55
2018-07-17T04:49:46.485Z,95665.53
2018-07-17T04:52:15.091Z,95668.44
2018-07-17T04:54:43.765Z,95670.41
2018-07-17T04:57:12.683Z,95674.00
2018-07-17T04:59:41.454Z,95677.27
2018-07-17T05:02:10.162Z,95679.02
2018-07-17T05:04:38.744Z,95675.34
2018-07-17T05:07:07.332Z,95674.93
2018-07-17T05:09:35.922Z,95673.50
2018-07-17T05:12:04.534Z,95670.44
2018-07-17T05:14:33.079Z,95669.06
2018-07-17T05:17:01.732Z,95673.84
2018-07-17T05:19:30.325Z,95673.98
2018-07-17T05:21:58.857Z,95684.33
2018-07-17T05:24:27.450Z,95685.39
2018-07-17T05:26:56.071Z,95691.51
2018-07-17T05:29:26.260Z,95704.52
2018-07-17T05:31:54.851Z,95700.67
2018-07-17T05:34:23.594Z,95702.03
2018-07-17T05:36:52.209Z,95708.72
2018-07-17T05:39:21.030Z,95711.55
2018-07-17T05:41:49.758Z,95710.16
2018-07-17T05:44:18.545Z,95671.67
2018-07-17T05:46:47.127Z,95710.51
2018-07-17T05:49:15.664Z,95710.02
2018-07-17T05:51:44.246Z,95710.16
2018-07-17T05:54:12.795Z,95706.73
2018-07-17T05:56:41.368Z,95708.50
2018-07-17T05:59:09.961Z,95707.45
2018-07-17T06:01:38.593Z,95705.03
2018-07-17T06:04:07.245Z,95709.90
2018-07-17T06:06:37.268Z,95715.59
2018-07-17T06:09:08.009Z,95711.91
2018-07-17T06:11:36.569Z,95711.40
2018-07-17T06:14:05.165Z,95708.81
2018-07-17T06:16:33.741Z,95673.62
2018-07-17T06:19:02.594Z,95713.89
2018-07-17T06:21:31.216Z,95713.05
2018-07-17T06:23:59.782Z,95716.22
2018-07-17T06:26:28.531Z,95708.89
2018-07-17T06:28:57.324Z,95706.27
2018-07-17T06:31:25.891Z,95707.86
2018-07-17T06:33:54.476Z,95704.18
2018-07-17T06:36:23.137Z,95715.54
2018-07-17T06:38:51.831Z,95719.04
2018-07-17T06:41:20.333Z,95715.77
2018-07-17T06:43:49.117Z,95716.19
2018-07-17T06:46:17.852Z,95710.39
2018-07-17T06:48:46.672Z,95723.69
2018-07-17T06:51:16.192Z,95721.38
2018-07-17T06:53:44.792Z,95712.64
2018-07-17T06:56:13.401Z,95716.09
2018-07-17T06:58:42.066Z,95714.47
2018-07-17T07:01:10.789Z,95724.34
2018-07-17T07:03:39.377Z,95720.30
2018-07-17T07:06:08.038Z,95728.80
2018-07-17T07:08:36.661Z,95722.91
2018-07-17T07:11:05.919Z,95722.61
2018-07-17T07:13:34.935Z,95720.00
2018-07-17T07:16:03.567Z,95724.13
2018-07-17T07:18:32.165Z,95725.66
2018-07-17T07:21:00.756Z,95727.11
2018-07-17T07:23:29.590Z,95723.69
2018-07-17T07:25:58.159Z,95726.05
2018-07-17T07:28:26.744Z,95730.84
2018-07-17T07:30:55.350Z,95725.56
2018-07-17T07:33:24.591Z,95725.91
2018-07-17T07:35:53.122Z,95728.93
2018-07-17T07:38:21.672Z,95730.31
2018-07-17T07:40:50.267Z,95729.52
2018-07-17T07:43:19.251Z,95735.52
2018-07-17T07:45:47.786Z,95733.01
2018-07-17T07:48:16.448Z,95727.66
2018-07-17T07:50:45.154Z,95737.02
2018-07-17T07:53:14.369Z,95736.16
2018-07-17T07:55:43.386Z,95740.29
2018-07-17T07:58:11.884Z,95732.50
2018-07-17T08:00:40.610Z,95733.89
2018-07-17T08:03:10.533Z,95737.34
2018-07-17T08:05:39.589Z,95735.99
2018-07-17T08:08:08.268Z,95735.41
2018-07-17T08:10:36.855Z,95735.91
2018-07-17T08:13:06.444Z,95732.86
2018-07-17T08:15:35.170Z,95734.91
2018-07-17T08:18:03.811Z,95729.77
2018-07-17T08:20:32.380Z,95734.53
2018-07-17T08:23:00.986Z,95728.98
2018-07-17T08:25:31.334Z,95728.38
2018-07-17T08:27:59.909Z,95727.00
2018-07-17T08:30:29.452Z,95734.73
2018-07-17T08:32:58.037Z,95731.42
2018-07-17T08:35:26.640Z,95738.36
2018-07-17T08:37:55.213Z,95735.34
2018-07-17T08:40:23.905Z,95736.98
2018-07-17T08:42:52.590Z,95738.67
2018-07-17T08:45:21.571Z,95745.39
2018-07-17T08:47:50.135Z,95749.94
2018-07-17T08:50:18.833Z,95754.72
2018-07-17T08:52:47.374Z,95756.23
2018-07-17T08:55:19.122Z,95755.73
2018-07-17T08:57:47.760Z,95758.83
2018-07-17T09:00:16.340Z,95762.16
2018-07-17T09:02:45.216Z,95764.70
2018-07-17T09:05:16.139Z,95767.92
2018-07-17T09:07:44.761Z,95771.80
2018-07-17T09:10:13.309Z,95767.55
2018-07-17T09:12:41.848Z,95769.70
2018-07-17T09:15:14.417Z,95770.78
2018-07-17T09:17:43.017Z,95771.91
2018-07-17T09:20:11.708Z,95771.12
2018-07-17T09:22:40.367Z,95767.50
2018-07-17T09:25:09.054Z,95765.48
2018-07-17T09:27:37.612Z,95767.96
2018-07-17T09:30:06.872Z,95764.89
2018-07-17T09:32:35.456Z,95761.84
2018-07-17T09:35:04.148Z,95762.08
2018-07-17T09:37:32.726Z,95758.55
2018-07-17T09:40:01.693Z,95758.83
2018-07-17T09:42:30.298Z,95759.12
2018-07-17T09:44:58.914Z,95764.41
2018-07-17T09:47:27.507Z,95750.95
2018-07-17T09:49:56.064Z,95754.84
2018-07-17T09:52:24.643Z,95758.55
2018-07-17T09:54:53.191Z,95756.80
2018-07-17T09:57:21.895Z,95753.84
2018-07-17T09:59:50.460Z,95763.97
2018-07-17T10:02:24.276Z,95753.41
2018-07-17T10:04:53.682Z,95754.94
2018-07-17T10:07:23.043Z,95753.48
2018-07-17T10:09:52.654Z,95756.31
2018-07-17T10:12:21.616Z,95754.95
2018-07-17T10:14:50.183Z,95742.91
2018-07-17T10:17:18.743Z,95733.34
2018-07-17T10:19:47.356Z,95730.91
2018-07-17T10:22:15.959Z,95735.50
2018-07-17T10:24:44.896Z,95739.23
2018-07-17T10:27:14.080Z,95740.80
2018-07-17T10:29:43.054Z,95735.73
2018-07-17T10:32:11.851Z,95735.95
2018-07-17T10:34:40.417Z,95739.33
2018-07-17T10:37:10.600Z,95731.69
2018-07-17T10:39:39.197Z,95731.10
2018-07-17T10:42:07.814Z,95728.13
2018-07-17T10:44:36.398Z,95719.28
2018-07-17T10:47:04.992Z,95732.52
2018-07-17T10:49:34.154Z,95726.68
2018-07-17T10:52:02.775Z,95736.11
2018-07-17T10:54:31.315Z,95730.89
2018-07-17T10:56:59.909Z,95731.00
2018-07-17T10:59:28.828Z,95732.52
2018-07-17T11:01:57.398Z,95738.78
2018-07-17T11:04:26.115Z,95738.28
2018-07-17T11:06:54.724Z,95730.18
2018-07-17T11:09:23.312Z,95724.08
2018-07-17T11:11:51.989Z,95725.72
2018-07-17T11:14:20.652Z,95720.68
2018-07-17T11:16:49.279Z,95729.92
2018-07-17T11:19:18.165Z,95727.28
2018-07-17T11:21:46.748Z,95725.91
2018-07-17T11:24:15.464Z,95723.18
2018-07-17T11:26:44.016Z,95717.52
2018-07-17T11:29:15.747Z,95717.30
2018-07-17T11:31:44.280Z,95733.92
2018-07-17T11:34:13.127Z,95716.89
2018-07-17T11:36:41.943Z,95724.85
2018-07-17T11:39:10.824Z,95723.06
2018-07-17T11:41:39.631Z,95714.98
2018-07-17T11:44:08.236Z,95719.98
2018-07-17T11:46:36.823Z,95713.69
2018-07-17T11:49:05.799Z,95712.91
2018-07-17T11:51:34.402Z,95703.64
2018-07-17T11:54:02.975Z,95707.77
2018-07-17T11:56:31.589Z,95719.14
2018-07-17T11:59:00.189Z,95708.36
2018-07-17T12:01:28.717Z,95704.89
2018-07-17T12:03:57.272Z,95706.19
2018-07-17T12:06:26.012Z,95706.59
2018-07-17T12:08:55.099Z,95711.52
2018-07-17T12:11:36.786Z,95696.20
2018-07-17T12:14:05.444Z,95697.49
2018-07-17T12:16:34.812Z,95681.00
2018-07-17T12:19:03.426Z,95680.85
2018-07-17T12:21:32.032Z,95679.08
2018-07-17T12:24:00.663Z,95682.77
2018-07-17T12:26:29.295Z,95684.17
2018-07-17T12:28:57.853Z,95674.80
2018-07-17T12:31:26.759Z,95677.15
2018-07-17T12:33:55.438Z,95675.92
2018-07-17T12:36:24.300Z,95672.90
2018-07-17T12:38:52.952Z,95678.94
2018-07-17T12:41:21.789Z,95672.42
2018-07-17T12:43:50.357Z,95675.88
2018-07-17T12:46:20.136Z,95679.05
2018-07-17T12:48:48.736Z,95674.02
2018-07-17T12:51:17.396Z,95664.91
2018-07-17T12:53:46.229Z,95651.11
2018-07-17T12:56:14.844Z,95663.16
2018-07-17T12:58:43.488Z,95657.21
2018-07-17T13:01:12.070Z,95650.63
2018-07-17T13:03:40.704Z,95650.77
2018-07-17T13:06:09.299Z,95660.50
2018-07-17T13:08:37.895Z,95650.08
2018-07-17T13:11:06.575Z,95641.31
2018-07-17T13:13:35.151Z,95645.94
2018-07-17T13:16:03.742Z,95646.38
2018-07-17T13:18:32.284Z,95649.92
2018-07-17T13:21:00.910Z,95642.57
2018-07-17T13:23:29.459Z,95639.80
2018-07-17T13:25:58.219Z,95646.28
2018-07-17T13:28:26.771Z,95639.75
2018-07-17T13:30:55.423Z,95644.81
2018-07-17T13:33:24.550Z,95647.38
2018-07-17T13:35:53.130Z,95651.58
2018-07-17T13:38:21.665Z,95653.13
2018-07-17T13:40:50.252Z,95637.23
2018-07-17T13:43:19.326Z,95640.58
2018-07-17T13:45:48.163Z,95645.84
2018-07-17T13:48:16.829Z,95648.48
2018-07-17T13:50:45.392Z,95633.58
2018-07-17T13:53:14.369Z,95632.86
2018-07-17T13:55:42.986Z,95637.45
2018-07-17T13:58:11.741Z,95637.68
2018-07-17T14:00:40.626Z,95626.13
2018-07-17T14:03:11.791Z,95613.55
2018-07-17T14:05:40.979Z,95604.27
2018-07-17T14:08:09.607Z,95603.07
2018-07-17T14:10:39.182Z,95605.69
2018-07-17T14:13:08.669Z,95611.80
2018-07-17T14:15:37.368Z,95605.06
2018-07-17T14:18:06.941Z,95616.98
2018-07-17T14:20:35.524Z,95613.11
2018-07-17T14:23:04.148Z,95611.94
2018-07-17T14:25:33.141Z,95611.34
2018-07-17T14:28:01.826Z,95618.19
2018-07-17T14:30:30.395Z,95619.32
2018-07-17T14:32:59.063Z,95635.59
2018-07-17T14:35:27.826Z,95647.56
2018-07-17T14:37:56.402Z,95637.69
2018-07-17T14:40:25.024Z,95638.02
2018-07-17T14:42:53.604Z,95646.38
2018-07-17T14:45:22.203Z,95653.33
2018-07-17T14:47:50.825Z,95646.11
2018-07-17T14:50:19.433Z,95653.23
2018-07-17T14:52:47.995Z,95640.75
2018-07-17T14:55:17.351Z,95639.97
2018-07-17T14:57:45.903Z,95622.22
2018-07-17T15:00:14.517Z,95621.70
2018-07-17T15:02:43.224Z,95630.17
2018-07-17T15:05:12.807Z,95626.67
2018-07-17T15:07:41.529Z,95632.33
2018-07-17T15:10:10.504Z,95632.00
2018-07-17T15:12:39.091Z,95631.31
2018-07-17T15:15:08.005Z,95629.59
2018-07-17T15:17:36.605Z,95627.72
2018-07-17T15:20:05.502Z,95624.92
2018-07-17T15:22:34.092Z,95634.55
2018-07-17T15:25:02.766Z,95641.00
2018-07-17T15:27:31.307Z,95636.27
2018-07-17T15:29:59.856Z,95638.17
2018-07-17T15:32:28.424Z,95631.28
2018-07-17T15:34:56.992Z,95631.72
2018-07-17T15:37:25.611Z,95639.06
2018-07-17T15:39:54.194Z,95632.34
2018-07-17T15:42:22.989Z,95628.47
2018-07-17T15:44:51.554Z,95626.39
2018-07-17T15:47:20.132Z,95627.17
2018-07-17T15:49:48.687Z,95626.91
2018-07-17T15:52:17.548Z,95629.19
2018-07-17T15:54:46.239Z,95631.01
2018-07-17T15:57:14.894Z,95632.77
2018-07-17T15:59:43.487Z,95626.82
2018-07-17T16:02:12.052Z,95620.19
2018-07-17T16:04:41.491Z,95624.52
2018-07-17T16:07:10.097Z,95620.81
2018-07-17T16:09:38.692Z,95616.08
2018-07-17T16:12:07.273Z,95613.48
2018-07-17T16:14:35.851Z,95611.69
2018-07-17T16:17:11.085Z,95610.92
2018-07-17T16:19:39.679Z,95611.81
2018-07-17T16:22:08.650Z,95616.35
2018-07-17T16:24:37.403Z,95612.77
2018-07-17T16:27:06.232Z,95619.58
2018-07-17T16:29:34.898Z,95608.45
2018-07-17T16:32:03.599Z,95613.36
2018-07-17T16:34:32.176Z,95615.09
2018-07-17T16:37:00.808Z,95611.44
2018-07-17T16:39:29.388Z,95611.63
2018-07-17T16:41:57.997Z,95613.81
2018-07-17T16:44:26.594Z,95614.70
2018-07-17T16:46:55.159Z,95613.46
2018-07-17T16:49:23.875Z,95610.91
2018-07-17T16:51:52.488Z,95607.36
2018-07-17T16:54:21.281Z,95611.98
2018-07-17T16:56:49.903Z,95604.99
2018-07-17T16:59:18.472Z,95604.94
2018-07-17T17:01:47.188Z,95604.09
2018-07-17T17:04:15.918Z,95601.55
2018-07-17T17:06:44.640Z,95604.28
2018-07-17T17:09:13.604Z,95597.34
2018-07-17T17:11:42.653Z,95600.55
2018-07-17T17:14:11.415Z,95607.66
2018-07-17T17:16:40.334Z,95600.25
2018-07-17T17:19:08.988Z,95605.92
2018-07-17T17:21:37.871Z,95595.68
2018-07-17T17:24:06.675Z,95592.89
2018-07-17T17:26:35.216Z,95599.12
2018-07-17T17:29:03.905Z,95606.97
2018-07-17T17:31:32.515Z,95604.66
2018-07-17T17:34:01.076Z,95602.46
2018-07-17T17:36:29.678Z,95604.21
2018-07-17T17:38:58.272Z,95600.63
2018-07-17T17:41:26.899Z,95603.64
2018-07-17T17:43:55.440Z,95605.49
2018-07-17T17:46:24.068Z,95602.87
2018-07-17T17:48:52.592Z,95603.95
2018-07-17T17:51:21.301Z,95604.39
2018-07-17T17:53:49.921Z,95607.43
2018-07-17T17:56:18.480Z,95605.91
2018-07-17T17:58:47.078Z,95608.44
2018-07-17T18:01:15.653Z,95611.21
2018-07-17T18:03:44.423Z,95614.41
2018-07-17T18:06:13.845Z,95609.72
2018-07-17T18:08:42.560Z,95615.45
2018-07-17T18:11:11.319Z,95615.69
2018-07-17T18:13:39.869Z,95618.13
2018-07-17T18:16:08.512Z,95613.75
2018-07-17T18:18:37.160Z,95614.20
2018-07-17T18:21:08.617Z,95616.02
2018-07-17T18:23:37.409Z,95613.48
2018-07-17T18:26:05.987Z,95612.98
2018-07-17T18:28:34.676Z,95615.83
2018-07-17T18:31:03.257Z,95610.75
2018-07-17T18:33:31.879Z,95619.98
2018-07-17T18:36:00.549Z,95622.73
2018-07-17T18:38:29.124Z,95627.70
2018-07-17T18:40:57.678Z,95631.53
2018-07-17T18:43:26.252Z,95631.54
2018-07-17T18:45:54.889Z,95632.77
2018-07-17T18:48:23.560Z,95636.39
2018-07-17T18:50:52.132Z,95638.27
2018-07-17T18:53:20.704Z,95641.02
2018-07-17T18:55:49.507Z,95644.47
2018-07-17T18:58:18.132Z,95648.34
2018-07-17T19:00:46.682Z,95650.38
2018-07-17T19:03:15.236Z,95652.12
2018-07-17T19:05:43.908Z,95648.04
2018-07-17T19:08:12.477Z,95653.88
2018-07-17T19:10:41.063Z,95654.21
2018-07-17T19:13:09.647Z,95660.75
2018-07-17T19:15:38.405Z,95662.53
2018-07-17T19:18:07.032Z,95672.18
2018-07-17T19:20:35.607Z,95668.02
2018-07-17T19:23:04.278Z,95669.47
2018-07-17T19:25:33.000Z,95675.25
2018-07-17T19:28:01.604Z,95675.75
2018-07-17T19:30:30.227Z,95679.59
2018-07-17T19:32:58.835Z,95680.83
2018-07-17T19:35:27.754Z,95682.86
2018-07-17T19:37:56.422Z,95689.30
2018-07-17T19:40:25.086Z,95688.02
2018-07-17T19:42:53.906Z,95691.85
2018-07-17T19:45:22.569Z,95693.26
2018-07-17T19:47:51.125Z,95690.55
2018-07-17T19:50:19.716Z,95693.53
2018-07-17T19:52:48.352Z,95695.45
2018-07-17T19:55:17.112Z,95694.84
2018-07-17T19:57:45.711Z,95702.70
2018-07-17T20:00:14.437Z,95698.17
2018-07-17T20:02:43.084Z,95697.95
2018-07-17T20:05:11.720Z,95698.16
2018-07-17T20:07:41.289Z,95702.98
2018-07-17T20:10:09.857Z,95699.95
2018-07-17T20:12:38.424Z,95702.45
2018-07-17T20:15:07.076Z,95703.27
2018-07-17T20:17:35.662Z,95703.18
2018-07-17T20:20:04.268Z,95697.47
2018-07-17T20:22:32.832Z,95698.57
2018-07-17T20:25:01.396Z,95696.94
2018-07-17T20:27:29.992Z,95700.66
2018-07-17T20:29:58.532Z,95704.37
2018-07-17T20:32:27.111Z,95699.18
2018-07-17T20:34:55.700Z,95705.50
2018-07-17T20:37:24.281Z,95702.08
2018-07-17T20:39:52.840Z,95701.67
2018-07-17T20:42:21.581Z,95705.09
2018-07-17T20:44:50.156Z,95704.98
2018-07-17T20:47:18.851Z,95704.31
2018-07-17T20:49:47.453Z,95704.71
2018-07-17T20:52:16.195Z,95704.30
2018-07-17T20:54:44.955Z,95706.10
2018-07-17T20:57:14.545Z,95712.83
2018-07-17T20:59:43.169Z,95719.66
2018-07-17T21:02:11.972Z,95723.25
2018-07-17T21:04:40.564Z,95726.88
2018-07-17T21:07:09.306Z,95723.98
2018-07-17T21:09:38.861Z,95723.38
2018-07-17T21:12:07.448Z,95723.58
2018-07-17T21:14:36.033Z,95715.45
2018-07-17T21:17:04.700Z,95725.80
2018-07-17T21:19:33.306Z,95728.70
2018-07-17T21:22:01.915Z,95729.49
2018-07-17T21:24:30.666Z,95731.41
2018-07-17T21:26:59.242Z,95731.61
2018-07-17T21:29:27.852Z,95729.00
2018-07-17T21:31:56.407Z,95726.39
2018-07-17T21:34:24.959Z,95732.13
2018-07-17T21:36:53.516Z,95735.93
2018-07-17T21:39:22.165Z,95740.75
2018-07-17T21:41:50.786Z,95728.30
2018-07-17T21:44:20.035Z,95730.31
2018-07-17T21:46:48.628Z,95731.20
2018-07-17T21:49:19.315Z,95734.52
2018-07-17T21:51:47.901Z,95739.94
2018-07-17T21:54:16.568Z,95740.55
2018-07-17T21:56:45.237Z,95741.56
2018-07-17T21:59:13.825Z,95750.11
2018-07-17T22:01:42.378Z,95747.48
2018-07-17T22:04:11.311Z,95749.59
2018-07-17T22:06:40.687Z,95758.94
2018-07-17T22:09:16.745Z,95756.64
2018-07-17T22:11:45.281Z,95755.63
2018-07-17T22:14:13.872Z,95750.89
2018-07-17T22:16:44.321Z,95751.22
2018-07-17T22:19:17.985Z,95756.84
2018-07-17T22:21:46.664Z,95744.66
2018-07-17T22:24:15.219Z,95744.57
2018-07-17T22:26:44.826Z,95739.66
2018-07-17T22:29:13.865Z,95743.58
2018-07-17T22:31:42.459Z,95736.12
2018-07-17T22:34:11.023Z,95735.03
2018-07-17T22:36:39.760Z,95737.95
2018-07-17T22:39:09.387Z,95741.56
2018-07-17T22:41:38.134Z,95748.00
2018-07-17T22:44:07.211Z,95744.77
2018-07-17T22:46:35.791Z,95749.48
2018-07-17T22:49:04.500Z,95743.77
2018-07-17T22:51:33.090Z,95747.28
2018-07-17T22:54:01.629Z,95742.34
2018-07-17T22:56:30.209Z,95738.75
2018-07-17T22:58:58.766Z,95744.27
2018-07-17T23:01:27.352Z,95742.34
2018-07-17T23:03:55.977Z,95742.34
2018-07-17T23:06:24.569Z,95748.50
2018-07-17T23:08:53.168Z,95744.55
2018-07-17T23:11:22.055Z,95758.70
2018-07-17T23:13:50.668Z,95755.59
2018-07-17T23:16:19.855Z,95759.29
2018-07-17T23:18:48.521Z,95757.09
2018-07-17T23:21:17.189Z,95758.20
2018-07-17T23:23:45.737Z,95752.78
2018-07-17T23:26:14.314Z,95756.57
2018-07-17T23:28:42.959Z,95743.63
2018-07-17T23:31:11.739Z,95745.17
2018-07-17T23:33:40.320Z,95752.84
2018-07-17T23:36:09.175Z,95746.68
2018-07-17T23:38:37.885Z,95746.19
2018-07-17T23:41:06.550Z,95743.91
2018-07-17T23:43:35.132Z,95746.80
2018-07-17T23:46:03.743Z,95748.58
2018-07-17T23:48:32.297Z,95744.62
2018-07-17T23:51:00.832Z,95746.63
2018-07-17T23:53:29.968Z,95747.06
2018-07-17T23:55:58.543Z,95747.08
2018-07-17T23:58:27.180Z,95747.87
